Time;durP1;ratioP1;P1;durP2;ratioP2;P2;SDS_P1;SDS_P2;PMS_P1;PMS_P2;Temp;Humidity;BMP_temperature;BMP_pressure;BME280_temperature;BME280_humidity;BME280_pressure;Samples;Min_cycle;Max_cycle;Signal;HPM_P1;HPM_P2
2022/06/20 00:01:37;;;;;;;5.63;1.00;;;14.60;99.90;;;;;;5005249;28;20034;-44
2022/06/20 00:04:02;;;;;;;4.97;0.70;;;14.60;99.90;;;;;;5009236;28;20033;-46
2022/06/20 00:06:28;;;;;;;2.55;0.60;;;14.60;99.90;;;;;;5006126;28;20422;-49
2022/06/20 00:08:54;;;;;;;6.22;1.40;;;14.50;99.90;;;;;;5006415;28;20121;-46
2022/06/20 00:11:35;;;;;;;2.78;0.85;;;14.50;99.90;;;;;;4996318;28;20049;-46
2022/06/20 00:14:01;;;;;;;4.05;0.68;;;14.50;99.90;;;;;;5003436;28;20046;-46
2022/06/20 00:16:32;;;;;;;5.20;0.70;;;14.40;99.90;;;;;;5006094;28;20050;-50
2022/06/20 00:19:00;;;;;;;3.53;0.80;;;14.40;99.90;;;;;;5007930;28;20050;-49
2022/06/20 00:21:26;;;;;;;2.58;0.70;;;14.40;99.90;;;;;;5007777;28;20042;-50
2022/06/20 00:23:52;;;;;;;3.63;0.63;;;14.40;99.90;;;;;;5004961;28;20045;-50
2022/06/20 00:26:18;;;;;;;3.72;0.88;;;14.40;99.90;;;;;;5008269;28;20052;-49
2022/06/20 00:28:45;;;;;;;4.20;0.88;;;14.40;99.90;;;;;;5003840;28;20046;-48
2022/06/20 00:31:12;;;;;;;6.05;0.95;;;14.30;99.90;;;;;;5007873;28;20046;-49
2022/06/20 00:33:38;;;;;;;2.20;0.70;;;14.20;99.90;;;;;;5005813;28;20066;-48
2022/06/20 00:36:04;;;;;;;3.47;0.73;;;14.20;99.90;;;;;;5004224;28;20537;-49
2022/06/20 00:38:31;;;;;;;3.63;0.90;;;14.20;99.90;;;;;;5006205;28;20038;-47
2022/06/20 00:41:04;;;;;;;5.07;0.95;;;14.10;99.90;;;;;;5006271;28;20502;-48
2022/06/20 00:43:40;;;;;;;5.60;0.73;;;14.10;99.90;;;;;;5004731;28;20037;-47
2022/06/20 00:46:19;;;;;;;6.00;0.90;;;14.10;99.90;;;;;;5004128;28;20053;-51
2022/06/20 00:49:13;;;;;;;3.90;0.98;;;14.10;99.90;;;;;;5006843;28;20096;-47
2022/06/20 00:52:03;;;;;;;3.22;0.73;;;14.10;99.90;;;;;;5007870;28;20474;-48
2022/06/20 00:54:44;;;;;;;5.43;0.80;;;14.20;99.90;;;;;;5006342;28;20125;-46
2022/06/20 00:57:16;;;;;;;2.92;0.90;;;14.10;99.90;;;;;;5003213;28;20040;-44
2022/06/20 00:59:50;;;;;;;5.10;1.00;;;14.10;99.90;;;;;;5005878;28;20042;-47
2022/06/20 01:02:31;;;;;;;3.03;0.80;;;14.10;99.90;;;;;;4988225;28;20042;-46
2022/06/20 01:05:05;;;;;;;5.65;1.17;;;14.00;99.90;;;;;;5005332;28;20042;-45
2022/06/20 01:07:41;;;;;;;5.10;1.45;;;14.00;99.90;;;;;;5005361;28;20045;-45
2022/06/20 01:10:10;;;;;;;2.72;0.80;;;14.00;99.90;;;;;;5010556;28;20060;-46
2022/06/20 01:13:01;;;;;;;6.82;0.90;;;14.00;99.90;;;;;;5011116;28;20042;-47
2022/06/20 01:15:34;;;;;;;6.47;1.15;;;14.00;99.90;;;;;;5004513;28;20084;-43
2022/06/20 01:18:02;;;;;;;2.97;0.95;;;14.00;99.90;;;;;;4994504;28;20042;-45
2022/06/20 01:20:31;;;;;;;6.95;1.20;;;13.90;99.90;;;;;;5010554;28;20046;-48
2022/06/20 01:23:08;;;;;;;6.85;1.10;;;13.90;99.90;;;;;;4996985;28;20066;-49
2022/06/20 01:25:52;;;;;;;6.95;1.30;;;13.90;99.90;;;;;;5017197;28;20112;-45
2022/06/20 01:28:23;;;;;;;4.95;1.10;;;13.90;99.90;;;;;;5003887;28;20041;-46
2022/06/20 01:30:49;;;;;;;6.03;1.10;;;13.90;99.90;;;;;;5012548;28;20137;-46
2022/06/20 01:33:18;;;;;;;4.50;1.05;;;13.80;99.90;;;;;;5012380;28;20057;-47
2022/06/20 01:38:30;;;;;;;4.70;1.45;;;13.80;99.90;;;;;;5009556;28;20034;-49
2022/06/20 01:43:41;;;;;;;5.10;0.90;;;13.80;99.90;;;;;;5009755;28;20126;-49
2022/06/20 01:46:09;;;;;;;9.15;1.88;;;13.80;99.90;;;;;;4995273;28;20435;-48
2022/06/20 01:48:39;;;;;;;4.25;1.10;;;13.80;99.90;;;;;;5007299;28;20046;-45
2022/06/20 01:51:11;;;;;;;6.78;0.90;;;13.80;99.90;;;;;;5010246;28;20042;-45
2022/06/20 01:53:37;;;;;;;4.45;0.90;;;13.90;99.90;;;;;;5007707;28;20076;-48
2022/06/20 01:56:04;;;;;;;4.55;1.00;;;13.80;99.90;;;;;;5019180;28;20057;-50
2022/06/20 01:58:38;;;;;;;2.00;0.80;;;13.80;99.90;;;;;;4993319;28;20045;-48
2022/06/20 02:01:05;;;;;;;4.10;0.98;;;13.80;99.90;;;;;;5007965;28;20038;-44
2022/06/20 02:03:39;;;;;;;4.68;0.82;;;13.80;99.90;;;;;;5009183;28;20053;-46
2022/06/20 02:06:08;;;;;;;4.38;0.70;;;13.80;99.90;;;;;;5012167;28;20096;-45
2022/06/20 02:08:37;;;;;;;4.25;0.80;;;13.70;99.90;;;;;;5008488;28;20542;-46
2022/06/20 02:11:17;;;;;;;3.10;0.70;;;13.70;99.90;;;;;;5005689;28;20045;-48
2022/06/20 02:13:46;;;;;;;3.50;0.90;;;13.60;99.90;;;;;;5010917;28;20103;-49
2022/06/20 02:16:16;;;;;;;4.13;1.05;;;13.60;99.90;;;;;;5008134;28;20053;-48
2022/06/20 02:18:44;;;;;;;4.30;1.00;;;13.60;99.90;;;;;;5010253;28;20119;-46
2022/06/20 02:21:17;;;;;;;2.45;0.90;;;13.50;99.90;;;;;;5008604;28;20133;-50
2022/06/20 02:23:48;;;;;;;4.07;0.88;;;13.50;99.90;;;;;;5007716;28;20041;-49
2022/06/20 02:26:15;;;;;;;6.18;0.93;;;13.50;99.90;;;;;;4991428;28;20096;-48
2022/06/20 02:28:50;;;;;;;2.95;0.77;;;13.50;99.90;;;;;;5007060;28;20096;-47
2022/06/20 02:31:17;;;;;;;3.67;0.93;;;13.50;99.90;;;;;;5006840;28;20041;-47
2022/06/20 02:33:43;;;;;;;3.88;0.98;;;13.40;99.90;;;;;;5008949;28;20065;-46
2022/06/20 02:36:09;;;;;;;3.10;0.88;;;13.40;99.90;;;;;;5009464;28;20041;-49
2022/06/20 02:38:36;;;;;;;5.30;1.00;;;13.30;99.90;;;;;;5008098;28;20120;-47
2022/06/20 02:41:02;;;;;;;3.28;0.80;;;13.30;99.90;;;;;;5007124;28;20038;-45
2022/06/20 02:43:37;;;;;;;5.07;1.25;;;13.30;99.90;;;;;;5007856;28;20058;-47
2022/06/20 02:46:08;;;;;;;8.43;1.13;;;13.30;99.90;;;;;;5010344;28;20128;-49
2022/06/20 02:48:36;;;;;;;4.47;0.80;;;13.30;99.90;;;;;;5005192;28;20043;-45
2022/06/20 02:51:06;;;;;;;1.42;0.68;;;13.20;99.90;;;;;;5009066;28;20161;-51
2022/06/20 02:53:46;;;;;;;2.97;1.00;;;13.20;99.90;;;;;;5005911;28;20616;-48
2022/06/20 02:56:15;;;;;;;5.45;1.08;;;13.10;99.90;;;;;;5007679;28;20045;-46
2022/06/20 02:58:47;;;;;;;5.25;1.15;;;13.10;99.90;;;;;;5011263;28;20088;-45
2022/06/20 03:01:23;;;;;;;2.92;0.80;;;13.10;99.90;;;;;;5007185;28;20042;-45
2022/06/20 03:03:52;;;;;;;3.28;0.80;;;13.10;99.90;;;;;;5006595;28;20177;-48
2022/06/20 03:06:31;;;;;;;2.67;0.68;;;13.00;99.90;;;;;;5007762;28;20092;-45
2022/06/20 03:08:58;;;;;;;2.70;0.80;;;13.00;99.90;;;;;;5005972;28;20042;-45
2022/06/20 03:11:26;;;;;;;5.03;0.73;;;13.00;99.90;;;;;;5011418;28;20045;-44
2022/06/20 03:13:53;;;;;;;5.53;0.80;;;12.90;99.90;;;;;;5005496;28;20038;-47
2022/06/20 03:16:21;;;;;;;2.63;0.70;;;12.80;99.90;;;;;;5005414;28;20065;-48
2022/06/20 03:18:49;;;;;;;3.75;0.98;;;12.90;99.90;;;;;;4998799;28;20058;-47
2022/06/20 03:21:24;;;;;;;2.80;0.70;;;12.80;99.90;;;;;;5004068;28;20041;-45
2022/06/20 03:23:51;;;;;;;2.83;0.73;;;12.80;99.90;;;;;;5008065;28;20125;-48
2022/06/20 03:26:23;;;;;;;4.63;1.08;;;12.80;99.90;;;;;;5007747;28;20112;-46
2022/06/20 03:28:48;;;;;;;3.38;0.70;;;12.80;99.90;;;;;;5005169;28;20675;-46
2022/06/20 03:31:14;;;;;;;6.93;1.20;;;12.70;99.90;;;;;;5008236;28;20072;-48
2022/06/20 03:33:41;;;;;;;4.22;0.75;;;12.70;99.90;;;;;;5008298;28;20038;-48
2022/06/20 03:36:11;;;;;;;1.85;0.70;;;12.70;99.90;;;;;;5005548;28;20460;-45
2022/06/20 03:38:38;;;;;;;3.80;0.90;;;12.70;99.90;;;;;;5010609;28;20048;-48
2022/06/20 03:41:05;;;;;;;3.42;0.95;;;12.70;99.90;;;;;;5005116;28;20116;-45
2022/06/20 03:43:33;;;;;;;1.73;0.80;;;12.70;99.90;;;;;;5007318;28;20499;-45
2022/06/20 03:46:15;;;;;;;4.97;0.80;;;12.70;99.90;;;;;;5008381;28;20111;-46
2022/06/20 03:48:55;;;;;;;4.53;0.70;;;12.70;99.90;;;;;;5008650;28;20406;-48
2022/06/20 03:51:24;;;;;;;2.85;0.50;;;12.70;99.90;;;;;;5002293;28;20570;-46
2022/06/20 03:53:57;;;;;;;2.17;0.70;;;12.70;99.90;;;;;;5002778;28;20037;-47
2022/06/20 03:56:22;;;;;;;;;;;12.70;99.90;;;;;;5005125;28;20033;-45
2022/06/20 03:59:19;;;;;;;2.30;0.88;;;12.60;99.90;;;;;;5006565;28;19933;-44
2022/06/20 04:02:06;;;;;;;3.00;0.85;;;12.60;99.90;;;;;;4998695;28;20069;-47
2022/06/20 04:05:08;;;;;;;3.45;0.70;;;12.60;99.90;;;;;;5007069;28;20156;-50
2022/06/20 04:08:05;;;;;;;2.20;0.70;;;12.60;99.90;;;;;;5007453;28;20132;-47
2022/06/20 04:13:40;;;;;;;5.90;1.73;;;12.70;99.90;;;;;;5007560;28;20092;-45
2022/06/20 04:16:14;;;;;;;2.63;0.90;;;12.70;99.90;;;;;;5006809;28;20132;-48
2022/06/20 04:18:50;;;;;;;4.55;0.93;;;12.80;99.90;;;;;;5007058;28;20046;-51
2022/06/20 04:21:41;;;;;;;3.65;0.88;;;12.80;99.90;;;;;;5006752;28;20038;-47
2022/06/20 04:24:21;;;;;;;4.13;1.13;;;12.90;99.90;;;;;;4998527;28;20053;-48
2022/06/20 04:27:22;;;;;;;2.97;0.77;;;13.00;99.90;;;;;;5005393;28;20037;-48
2022/06/20 04:29:54;;;;;;;4.07;0.68;;;13.00;99.90;;;;;;5005367;28;20141;-49
2022/06/20 04:32:37;;;;;;;2.77;0.60;;;13.10;99.90;;;;;;5011440;28;20034;-48
2022/06/20 04:35:26;;;;;;;9.55;0.90;;;13.10;99.90;;;;;;4981786;28;20572;-47
2022/06/20 04:37:57;;;;;;;3.75;0.70;;;13.10;99.90;;;;;;5010947;28;20042;-47
2022/06/20 04:40:37;;;;;;;4.80;0.70;;;13.10;99.90;;;;;;5010253;28;20496;-46
2022/06/20 04:43:11;;;;;;;2.63;0.88;;;13.10;99.90;;;;;;5015586;28;20137;-44
2022/06/20 04:45:49;;;;;;;2.05;0.90;;;13.20;99.90;;;;;;4991934;28;20108;-45
2022/06/20 04:48:20;;;;;;;2.97;0.68;;;13.30;99.90;;;;;;5013765;28;20064;-50
2022/06/20 04:50:52;;;;;;;2.67;0.80;;;13.30;99.90;;;;;;5009168;28;20060;-49
2022/06/20 04:53:25;;;;;;;3.72;0.70;;;13.30;99.90;;;;;;5006878;28;20180;-48
2022/06/20 04:55:54;;;;;;;5.03;1.20;;;13.30;99.90;;;;;;5010618;28;20045;-48
2022/06/20 04:58:28;;;;;;;3.95;0.90;;;13.30;99.90;;;;;;5012108;28;20038;-46
2022/06/20 05:00:55;;;;;;;2.00;0.82;;;13.30;99.90;;;;;;5010051;28;20076;-45
2022/06/20 05:03:25;;;;;;;3.63;1.08;;;13.40;99.90;;;;;;5015558;28;20187;-49
2022/06/20 05:05:54;;;;;;;4.05;1.00;;;13.40;99.90;;;;;;5011647;28;20048;-46
2022/06/20 05:08:31;;;;;;;5.82;0.90;;;13.50;99.90;;;;;;5011038;28;20582;-47
2022/06/20 05:11:08;;;;;;;4.75;1.13;;;13.50;99.90;;;;;;5010099;28;20132;-47
2022/06/20 05:13:38;;;;;;;2.88;0.90;;;13.60;99.90;;;;;;5006024;28;20053;-49
2022/06/20 05:16:09;;;;;;;4.55;1.08;;;13.60;99.90;;;;;;5008690;28;20119;-48
2022/06/20 05:18:42;;;;;;;10.40;1.92;;;13.70;99.90;;;;;;5011744;28;20403;-46
2022/06/20 05:21:23;;;;;;;7.15;1.40;;;13.80;99.90;;;;;;5006196;28;20050;-44
2022/06/20 05:23:56;;;;;;;4.70;0.88;;;13.80;99.90;;;;;;5002472;28;20053;-46
2022/06/20 05:26:30;;;;;;;6.72;1.10;;;13.80;99.90;;;;;;4989669;28;20133;-43
2022/06/20 05:28:58;;;;;;;7.50;1.30;;;13.90;99.90;;;;;;5018240;28;20100;-48
2022/06/20 05:31:45;;;;;;;5.53;1.30;;;14.00;99.90;;;;;;5008172;28;20123;-46
2022/06/20 05:34:28;;;;;;;6.45;1.85;;;14.00;99.90;;;;;;5006996;28;20041;-47
2022/06/20 05:37:08;;;;;;;;;;;14.10;99.90;;;;;;4988176;28;20038;-45
2022/06/20 05:39:37;;;;;;;;;;;14.20;99.90;;;;;;5004902;28;20235;-48
2022/06/20 05:42:03;;;;;;;;;;;14.20;99.90;;;;;;5007944;28;19965;-44
2022/06/20 05:44:29;;;;;;;;;;;14.30;99.90;;;;;;5010015;28;19921;-44
2022/06/20 05:46:54;;;;;;;;;;;14.30;99.90;;;;;;5008769;28;19921;-48
2022/06/20 05:49:25;;;;;;;;;;;14.40;99.90;;;;;;5011552;28;19924;-46
2022/06/20 05:51:51;;;;;;;;;;;14.50;99.90;;;;;;5006445;28;20008;-51
2022/06/20 05:54:19;;;;;;;;;;;14.50;99.90;;;;;;5006502;28;19921;-44
2022/06/20 05:56:50;;;;;;;;;;;14.70;99.90;;;;;;5011155;28;19993;-47
2022/06/20 05:59:25;;;;;;;;;;;14.90;99.90;;;;;;4985394;28;19992;-52
2022/06/20 06:01:52;;;;;;;;;;;15.10;99.90;;;;;;5005570;28;20240;-48
2022/06/20 06:04:24;;;;;;;;;;;15.20;99.90;;;;;;4992533;28;20409;-41
2022/06/20 06:07:05;;;;;;;;;;;15.30;99.90;;;;;;4987504;28;19928;-51
2022/06/20 06:09:53;;;;;;;;;;;15.40;99.90;;;;;;4989168;28;20335;-43
2022/06/20 06:12:40;;;;;;;;;;;15.40;99.90;;;;;;4992510;28;20402;-46
2022/06/20 06:15:06;;;;;;;;;;;15.40;99.90;;;;;;4996874;28;19922;-47
2022/06/20 06:17:41;;;;;;;;;;;15.50;99.90;;;;;;4967461;28;20013;-48
2022/06/20 06:20:15;;;;;;;;;;;15.50;99.90;;;;;;4962884;28;19925;-47
2022/06/20 06:22:45;;;;;;;;;;;15.50;99.90;;;;;;4965698;28;19981;-46
2022/06/20 06:25:31;;;;;;;;;;;15.50;99.90;;;;;;4966614;28;20390;-45
2022/06/20 06:28:11;;;;;;;;;;;15.50;99.90;;;;;;4977653;28;20284;-44
2022/06/20 06:30:37;;;;;;;;;;;15.60;99.90;;;;;;4965218;28;19918;-46
2022/06/20 06:33:11;;;;;;;;;;;15.80;99.80;;;;;;4966263;28;19922;-45
2022/06/20 06:35:40;;;;;;;;;;;15.90;98.80;;;;;;4967572;28;19930;-45
2022/06/20 06:38:25;;;;;;;;;;;16.20;98.00;;;;;;4966523;28;20383;-46
2022/06/20 06:40:52;;;;;;;;;;;16.30;97.60;;;;;;4967087;28;19964;-47
2022/06/20 06:43:28;;;;;;;;;;;16.30;97.20;;;;;;4971484;28;19922;-46
2022/06/20 06:45:56;;;;;;;;;;;16.30;96.90;;;;;;4965225;28;19967;-48
2022/06/20 06:48:40;;;;;;;;;;;16.30;96.40;;;;;;4963506;28;20395;-49
2022/06/20 06:51:08;;;;;;;;;;;16.20;96.60;;;;;;4969717;28;19930;-49
2022/06/20 06:53:37;;;;;;;;;;;16.20;95.80;;;;;;4970387;28;20352;-46
2022/06/20 06:56:25;;;;;;;;;;;16.30;95.90;;;;;;4970007;28;19926;-48
2022/06/20 06:59:09;;;;;;;;;;;16.50;95.80;;;;;;4970332;28;19940;-50
2022/06/20 07:01:38;;;;;;;;;;;16.80;95.20;;;;;;4963368;28;19928;-51
2022/06/20 07:04:14;;;;;;;;;;;16.90;95.30;;;;;;4965146;28;19922;-45
2022/06/20 07:06:46;;;;;;;;;;;16.90;95.10;;;;;;4964211;28;19941;-48
2022/06/20 07:09:27;;;;;;;;;;;16.80;94.40;;;;;;4967291;28;19922;-50
2022/06/20 07:12:04;;;;;;;;;;;16.80;94.00;;;;;;4960621;28;19973;-47
2022/06/20 07:14:32;;;;;;;;;;;16.80;94.90;;;;;;4960343;28;19965;-45
2022/06/20 07:17:00;;;;;;;;;;;16.70;94.90;;;;;;4990871;28;20403;-50
2022/06/20 07:19:26;;;;;;;;;;;16.50;95.20;;;;;;4966211;28;20379;-51
2022/06/20 07:21:53;;;;;;;;;;;16.30;95.30;;;;;;4966910;28;19929;-42
2022/06/20 07:24:21;;;;;;;;;;;16.20;96.20;;;;;;4960784;28;20118;-46
2022/06/20 07:26:53;;;;;;;;;;;16.20;96.00;;;;;;4965073;28;19937;-51
2022/06/20 07:29:21;;;;;;;;;;;16.10;96.10;;;;;;4965166;28;20020;-51
2022/06/20 07:31:48;;;;;;;;;;;16.10;96.30;;;;;;4965459;28;19929;-50
2022/06/20 07:34:17;;;;;;;;;;;16.20;96.10;;;;;;4965511;28;19961;-49
2022/06/20 07:36:45;;;;;;;;;;;16.30;95.80;;;;;;4957632;28;19922;-45
2022/06/20 07:39:14;;;;;;;;;;;16.50;95.60;;;;;;4968307;28;20060;-40
2022/06/20 07:41:42;;;;;;;;;;;16.70;94.70;;;;;;4969758;28;19964;-50
2022/06/20 07:44:31;;;;;;;;;;;16.90;95.10;;;;;;4967418;28;20553;-48
2022/06/20 07:46:58;;;;;;;;;;;17.00;92.60;;;;;;4962947;28;20371;-48
2022/06/20 07:49:47;;;;;;;;;;;17.20;92.90;;;;;;4964779;28;20255;-45
2022/06/20 07:52:16;;;;;;;;;;;17.30;92.20;;;;;;4962754;28;20001;-48
2022/06/20 07:54:44;;;;;;;;;;;17.50;91.70;;;;;;4960952;28;20419;-51
2022/06/20 07:57:15;;;;;;;;;;;17.60;89.70;;;;;;4993224;28;20328;-44
2022/06/20 07:59:43;;;;;;;;;;;17.70;90.30;;;;;;4966966;28;19933;-49
2022/06/20 08:02:30;;;;;;;;;;;17.70;90.10;;;;;;4968576;28;20442;-43
2022/06/20 08:04:57;;;;;;;;;;;17.80;86.50;;;;;;4965415;28;20004;-46
2022/06/20 08:07:33;;;;;;;;;;;17.90;86.80;;;;;;4967512;28;20028;-45
2022/06/20 08:10:02;;;;;;;;;;;18.00;89.30;;;;;;4968848;28;20387;-45
2022/06/20 08:12:33;;;;;;;;;;;18.00;89.70;;;;;;4960552;28;19924;-51
2022/06/20 08:15:04;;;;;;;;;;;18.10;89.10;;;;;;4972015;28;19987;-48
2022/06/20 08:17:30;;;;;;;;;;;18.00;90.30;;;;;;5005553;28;20008;-49
2022/06/20 08:19:56;;;;;;;;;;;17.80;88.60;;;;;;5007672;28;20008;-50
2022/06/20 08:22:24;;;;;;;;;;;17.60;89.80;;;;;;5005594;28;20020;-52
2022/06/20 08:24:54;;;;;;;;;;;17.40;89.60;;;;;;5003044;28;20331;-47
2022/06/20 08:27:33;;;;;;;;;;;17.40;90.50;;;;;;5005987;28;19952;-47
2022/06/20 08:30:19;;;;;;;;;;;17.60;90.60;;;;;;5010139;28;19917;-54
2022/06/20 08:32:59;;;;;;;;;;;17.80;89.50;;;;;;5003662;28;20346;-55
2022/06/20 08:35:27;;;;;;;;;;;18.00;85.10;;;;;;5002837;28;19926;-46
2022/06/20 08:37:58;;;;;;;;;;;18.20;84.60;;;;;;5007793;28;19917;-50
2022/06/20 08:40:27;;;;;;;;;;;18.30;82.60;;;;;;5005305;28;19927;-44
2022/06/20 08:42:52;;;;;;;;;;;18.30;84.60;;;;;;5006924;28;19940;-46
2022/06/20 08:45:29;;;;;;;;;;;18.30;86.10;;;;;;5002424;28;20434;-47
2022/06/20 08:48:08;;;;;;;;;;;18.20;83.50;;;;;;5002801;28;19940;-50
2022/06/20 08:50:33;;;;;;;;;;;18.10;81.50;;;;;;5007422;28;20347;-51
2022/06/20 08:53:27;;;;;;;;;;;18.00;81.70;;;;;;5003067;28;19922;-47
2022/06/20 08:56:02;;;;;;;;;;;17.90;84.60;;;;;;5004324;28;20440;-49
2022/06/20 08:58:43;;;;;;;;;;;17.60;83.90;;;;;;5008466;28;19918;-43
2022/06/20 09:01:15;;;;;;;;;;;17.50;82.80;;;;;;4987544;28;20007;-46
2022/06/20 09:03:40;;;;;;;;;;;17.60;85.00;;;;;;5003134;28;19948;-45
2022/06/20 09:06:18;;;;;;;;;;;17.90;86.60;;;;;;5004628;28;20398;-48
2022/06/20 09:09:08;;;;;;;;;;;18.10;82.50;;;;;;4992321;28;20015;-47
2022/06/20 09:11:36;;;;;;;;;;;18.30;82.80;;;;;;5004970;28;19918;-51
2022/06/20 09:14:20;;;;;;;;;;;18.40;81.20;;;;;;5004509;28;19952;-45
2022/06/20 09:16:53;;;;;;;;;;;18.50;79.30;;;;;;4997787;28;19967;-43
2022/06/20 09:19:19;;;;;;;;;;;18.40;74.30;;;;;;5006582;28;19944;-52
2022/06/20 09:21:50;;;;;;;;;;;18.50;76.30;;;;;;5005000;28;19925;-43
2022/06/20 09:24:22;;;;;;;;;;;18.80;77.60;;;;;;5004575;28;19925;-45
2022/06/20 09:26:50;;;;;;;;;;;19.00;74.40;;;;;;5007815;28;19921;-46
2022/06/20 09:29:36;;;;;;;;;;;19.00;71.30;;;;;;5011211;28;20032;-44
2022/06/20 09:32:13;;;;;;;;;;;18.90;73.60;;;;;;4978542;28;19921;-44
2022/06/20 09:34:57;;;;;;;;;;;18.70;73.10;;;;;;5009518;28;19947;-48
2022/06/20 09:37:38;;;;;;;;;;;18.80;74.10;;;;;;5008021;28;20386;-45
2022/06/20 09:40:03;;;;;;;;;;;19.00;72.20;;;;;;4992150;28;19917;-50
2022/06/20 09:42:44;;;;;;;;;;;19.20;71.30;;;;;;4994070;28;19921;-49
2022/06/20 09:45:15;;;;;;;;;;;19.40;70.00;;;;;;5008175;28;20000;-45
2022/06/20 09:47:50;;;;;;;;;;;19.50;71.90;;;;;;5007857;28;20427;-52
2022/06/20 09:50:16;;;;;;;;;;;19.60;73.50;;;;;;5006405;28;19925;-47
2022/06/20 09:52:52;;;;;;;;;;;19.60;69.10;;;;;;5002797;28;19928;-53
2022/06/20 09:55:27;;;;;;;;;;;19.60;63.80;;;;;;5007461;28;19929;-41
2022/06/20 09:58:09;;;;;;;;;;;19.70;67.50;;;;;;4998305;28;19980;-51
2022/06/20 10:00:39;;;;;;;;;;;19.70;68.00;;;;;;5005312;28;20320;-48
2022/06/20 10:03:13;;;;;;;;;;;19.60;67.80;;;;;;5006143;28;19928;-48
2022/06/20 10:05:51;;;;;;;;;;;19.50;69.90;;;;;;5003231;28;19917;-49
2022/06/20 10:08:27;;;;;;;;;;;19.40;71.60;;;;;;5010841;28;19924;-48
2022/06/20 10:10:55;;;;;;;;;;;19.10;74.00;;;;;;5006469;28;19918;-47
2022/06/20 10:13:25;;;;;;;;;;;18.90;75.40;;;;;;5008081;28;20023;-46
2022/06/20 10:16:10;;;;;;;;;;;18.90;75.50;;;;;;5004814;28;20036;-46
2022/06/20 10:18:45;;;;;;;;;;;19.10;75.20;;;;;;5009369;28;19925;-43
2022/06/20 10:21:26;;;;;;;;;;;19.30;72.90;;;;;;5010271;28;20394;-47
2022/06/20 10:23:52;;;;;;;;;;;19.60;71.50;;;;;;5011699;28;19917;-45
2022/06/20 10:26:23;;;;;;;;;;;19.70;70.50;;;;;;5014711;28;20259;-45
2022/06/20 10:28:56;;;;;;;;;;;19.50;70.90;;;;;;5003683;28;19918;-45
2022/06/20 10:31:30;;;;;;;;;;;19.20;70.70;;;;;;5003709;28;19943;-46
2022/06/20 10:34:03;;;;;;;;;;;19.20;73.30;;;;;;5005181;28;19924;-45
2022/06/20 10:36:48;;;;;;;;;;;19.30;70.40;;;;;;5001993;28;19926;-50
2022/06/20 10:39:16;;;;;;;;;;;19.40;72.30;;;;;;5000720;28;20312;-51
2022/06/20 10:41:45;;;;;;;;;;;19.60;71.60;;;;;;5006485;28;20500;-47
2022/06/20 10:44:17;;;;;;;;;;;19.80;67.80;;;;;;5002927;28;20024;-45
2022/06/20 10:46:52;;;;;;;;;;;19.90;62.10;;;;;;5006663;28;19925;-48
2022/06/20 10:49:23;;;;;;;;;;;19.90;64.30;;;;;;5003566;28;19967;-48
2022/06/20 10:51:58;;;;;;;;;;;19.90;61.20;;;;;;5004183;28;20379;-46
2022/06/20 10:54:31;;;;;;;;;;;20.10;66.40;;;;;;5007178;28;20601;-47
2022/06/20 10:56:59;;;;;;;;;;;20.30;65.70;;;;;;5006266;28;20024;-49
2022/06/20 10:59:40;;;;;;;;;;;20.10;60.90;;;;;;5009610;28;19921;-49
2022/06/20 11:02:12;;;;;;;;;;;20.10;64.20;;;;;;4958067;28;19924;-48
2022/06/20 11:04:56;;;;;;;;;;;20.20;65.90;;;;;;5003854;28;20020;-47
2022/06/20 11:07:21;;;;;;;;;;;20.00;67.00;;;;;;5008395;28;19925;-48
2022/06/20 11:10:01;;;;;;;;;;;19.90;69.10;;;;;;5009008;28;19925;-47
2022/06/20 11:12:33;;;;;;;;;;;20.00;68.50;;;;;;4999035;28;19931;-46
2022/06/20 11:15:11;;;;;;;;;;;20.20;66.30;;;;;;5003177;28;20366;-47
2022/06/20 11:17:43;;;;;;;;;;;20.40;67.00;;;;;;4999746;28;20367;-48
2022/06/20 11:20:16;;;;;;;;;;;20.50;65.60;;;;;;5006585;28;19936;-49
2022/06/20 11:22:45;;;;;;;;;;;20.50;64.90;;;;;;5001796;28;20453;-47
2022/06/20 11:25:42;;;;;;;;;;;20.20;65.30;;;;;;5000923;28;19921;-46
2022/06/20 11:28:16;;;;;;;;;;;20.00;65.90;;;;;;5013316;28;19929;-48
2022/06/20 11:30:54;;;;;;;;;;;20.10;68.70;;;;;;5009382;28;19958;-47
2022/06/20 11:34:02;;;;;;;;;;;20.20;64.40;;;;;;5000792;28;19976;-50
2022/06/20 11:36:36;;;;;;;;;;;20.40;65.00;;;;;;5003890;28;19987;-43
2022/06/20 11:39:08;;;;;;;;;;;20.50;66.30;;;;;;4997740;28;19931;-44
2022/06/20 11:41:44;;;;;;;;;;;20.60;66.80;;;;;;5005333;28;19993;-47
2022/06/20 11:44:15;;;;;;;;;;;20.80;66.90;;;;;;5012326;28;19918;-47
2022/06/20 11:46:50;;;;;;;;;;;20.80;64.60;;;;;;5007657;28;20020;-48
2022/06/20 11:49:16;;;;;;;;;;;21.00;65.10;;;;;;5003625;28;20052;-48
2022/06/20 11:51:48;;;;;;;;;;;20.90;61.10;;;;;;4996952;28;19950;-47
2022/06/20 11:54:13;;;;;;;;;;;21.10;63.10;;;;;;5003016;28;20318;-45
2022/06/20 11:56:48;;;;;;;;;;;21.10;64.10;;;;;;5006992;28;19971;-49
2022/06/20 11:59:21;;;;;;;;;;;20.90;62.60;;;;;;5006955;28;19921;-45
2022/06/20 12:01:50;;;;;;;;;;;20.80;64.90;;;;;;5006773;28;19980;-49
2022/06/20 12:04:25;;;;;;;;;;;20.90;61.50;;;;;;5006648;28;19925;-48
2022/06/20 12:06:56;;;;;;;;;;;21.00;59.40;;;;;;5004567;28;19975;-47
2022/06/20 12:09:40;;;;;;;;;;;21.10;60.80;;;;;;5009624;28;20343;-47
2022/06/20 12:12:17;;;;;;;;;;;21.20;61.80;;;;;;4998732;28;20012;-46
2022/06/20 12:14:52;;;;;;;;;;;21.10;58.70;;;;;;5004488;28;19969;-45
2022/06/20 12:17:38;;;;;;;;;;;21.20;53.70;;;;;;5008789;28;19994;-50
2022/06/20 12:25:57;;;;;;;;;;;20.90;59.00;;;;;;5009231;28;19921;-48
2022/06/20 12:28:26;;;;;;;;;;;20.60;59.00;;;;;;5009869;28;19917;-47
2022/06/20 12:31:01;;;;;;;;;;;20.40;58.50;;;;;;5009249;28;20356;-48
2022/06/20 12:33:27;;;;;;;;;;;20.40;60.20;;;;;;5006027;28;19925;-45
2022/06/20 12:35:55;;;;;;;;;;;20.40;58.90;;;;;;5014888;28;20011;-49
2022/06/20 12:38:27;;;;;;;;;;;20.50;60.50;;;;;;5009690;28;20371;-46
2022/06/20 12:40:58;;;;;;;;;;;20.50;61.80;;;;;;5010389;28;20028;-48
2022/06/20 12:43:31;;;;;;;;;;;20.70;62.00;;;;;;5009325;28;19917;-48
2022/06/20 12:46:05;;;;;;;;;;;20.80;60.30;;;;;;5009848;28;20395;-46
2022/06/20 12:48:57;;;;;;;;;;;20.90;53.90;;;;;;5009932;28;19927;-47
2022/06/20 12:51:30;;;;;;;;;;;20.90;55.20;;;;;;5011625;28;19922;-45
2022/06/20 12:54:05;;;;;;;;;;;20.90;55.40;;;;;;5009094;28;20339;-47
2022/06/20 12:56:49;;;;;;;;;;;21.00;54.00;;;;;;5009750;28;19926;-48
2022/06/20 12:59:29;;;;;;;;;;;21.00;55.60;;;;;;5010641;28;19918;-51
2022/06/20 13:02:01;;;;;;;;;;;21.10;58.80;;;;;;5014347;28;19975;-50
2022/06/20 13:04:38;;;;;;;;;;;21.10;56.80;;;;;;5004122;28;20301;-46
2022/06/20 13:07:18;;;;;;;;;;;21.10;58.70;;;;;;5012862;28;19917;-50
2022/06/20 13:10:00;;;;;;;;;;;21.20;60.30;;;;;;5012869;28;19917;-50
2022/06/20 13:12:25;;;;;;;;;;;21.10;56.00;;;;;;5004417;28;19924;-48
2022/06/20 13:15:00;;;;;;;;;;;21.10;54.50;;;;;;5013326;28;20255;-45
2022/06/20 13:17:26;;;;;;;;;;;21.10;53.60;;;;;;5015577;28;19922;-44
2022/06/20 13:20:03;;;;;;;;;;;21.10;55.80;;;;;;5009301;28;19918;-42
2022/06/20 13:22:30;;;;;;;;;;;21.00;57.50;;;;;;5005338;28;19918;-45
2022/06/20 13:24:55;;;;;;;;;;;21.10;57.70;;;;;;5011048;28;19971;-46
2022/06/20 13:27:21;;;;;;;;;;;21.20;59.20;;;;;;5013302;28;20347;-48
2022/06/20 13:29:56;;;;;;;;;;;21.30;58.20;;;;;;5013755;28;20287;-48
2022/06/20 13:32:30;;;;;;;;;;;21.40;57.40;;;;;;5011904;28;19975;-48
2022/06/20 13:35:15;;;;;;;;;;;21.40;53.50;;;;;;5011077;28;19933;-49
2022/06/20 13:37:44;;;;;;;;;;;21.40;55.80;;;;;;5025010;28;20375;-49
2022/06/20 13:40:15;;;;;;;;;;;21.50;56.90;;;;;;5012853;28;19972;-48
2022/06/20 13:42:52;;;;;;;;;;;21.70;56.00;;;;;;5011915;28;19964;-50
2022/06/20 13:45:40;;;;;;;;;;;21.90;55.50;;;;;;5017287;28;19925;-49
2022/06/20 13:48:24;;;;;;;;;;;21.80;52.80;;;;;;5007343;28;19917;-49
2022/06/20 13:50:55;;;;;;;;;;;21.80;52.60;;;;;;5014147;28;20111;-47
2022/06/20 13:53:21;;;;;;;;;;;21.80;54.00;;;;;;5013948;28;19935;-51
2022/06/20 13:55:55;;;;;;;;;;;21.80;52.80;;;;;;4998590;28;19929;-46
2022/06/20 13:58:33;;;;;;;;;;;21.90;52.40;;;;;;5013702;28;19924;-49
2022/06/20 14:01:01;;;;;;;;;;;21.90;52.10;;;;;;5012234;28;20381;-49
2022/06/20 14:03:35;;;;;;;;;;;21.90;50.20;;;;;;5012018;28;19959;-46
2022/06/20 14:06:05;;;;;;;;;;;22.00;50.60;;;;;;5013237;28;19924;-46
2022/06/20 14:08:31;;;;;;;;;;;22.20;51.80;;;;;;5012068;28;20359;-44
2022/06/20 14:10:58;;;;;;;;;;;22.40;51.20;;;;;;5011677;28;20031;-47
2022/06/20 14:13:26;;;;;;;;;;;22.70;51.90;;;;;;5011716;28;19925;-49
2022/06/20 14:15:53;;;;;;;;;;;22.80;50.30;;;;;;4994908;28;19925;-49
2022/06/20 14:18:22;;;;;;;;;;;22.80;48.80;;;;;;5014610;28;19927;-46
2022/06/20 14:20:57;;;;;;;;;;;23.00;47.70;;;;;;5012662;28;20381;-45
2022/06/20 14:23:23;;;;;;;;;;;23.30;47.60;;;;;;5012155;28;20005;-47
2022/06/20 14:25:51;;;;;;;;;;;23.80;46.70;;;;;;5011510;28;20024;-48
2022/06/20 14:28:16;;;;;;;;;;;24.20;44.60;;;;;;5013719;28;19921;-46